Time;durP1;ratioP1;P1;durP2;ratioP2;P2;SDS_P1;SDS_P2;PMS_P1;PMS_P2;Temp;Humidity;BMP_temperature;BMP_pressure;BME280_temperature;BME280_humidity;BME280_pressure;Samples;Min_cycle;Max_cycle;Signal;HPM_P1;HPM_P2
2022/02/26 00:02:21;;;;;;;26.90;7.23;;;;;;;;;;6208909;28;20233;-70
2022/02/26 00:05:43;;;;;;;21.50;7.57;;;;;;;;;;6208225;28;20575;-70
2022/02/26 00:09:04;;;;;;;30.90;8.43;;;;;;;;;;6214294;28;20225;-70
2022/02/26 00:12:24;;;;;;;30.93;8.40;;;;;;;;;;6210531;28;20626;-70
2022/02/26 00:15:46;;;;;;;23.37;6.17;;;;;;;;;;6203734;28;20233;-69
2022/02/26 00:19:07;;;;;;;19.57;5.97;;;;;;;;;;6210237;28;20229;-69
2022/02/26 00:22:27;;;;;;;24.60;7.57;;;;;;;;;;6205887;28;20241;-69
2022/02/26 00:25:48;;;;;;;16.40;5.87;;;;;;;;;;6208203;28;20229;-70
2022/02/26 00:29:08;;;;;;;28.47;8.23;;;;;;;;;;6210446;28;20233;-69
2022/02/26 00:32:30;;;;;;;26.83;7.90;;;;;;;;;;6209835;28;20572;-70
2022/02/26 00:35:52;;;;;;;28.20;7.90;;;;;;;;;;6210221;28;20540;-69
2022/02/26 00:39:13;;;;;;;26.93;6.53;;;;;;;;;;6216331;28;20230;-69
2022/02/26 00:42:34;;;;;;;27.30;6.63;;;;;;;;;;6204464;28;20221;-70
2022/02/26 00:45:54;;;;;;;25.53;8.27;;;;;;;;;;6205448;28;20599;-71
2022/02/26 00:52:56;;;;;;;25.93;7.50;;;;;;;;;;6213218;28;20233;-69
2022/02/26 00:56:17;;;;;;;32.57;7.67;;;;;;;;;;6209087;28;20251;-68
2022/02/26 00:59:38;;;;;;;30.17;8.43;;;;;;;;;;6210850;28;20229;-69
2022/02/26 01:02:59;;;;;;;31.20;8.60;;;;;;;;;;6208327;28;20253;-69
2022/02/26 01:06:21;;;;;;;21.87;8.03;;;;;;;;;;6211518;28;20233;-69
2022/02/26 01:09:41;;;;;;;23.30;5.67;;;;;;;;;;6213347;28;20230;-68
2022/02/26 01:13:02;;;;;;;29.57;9.43;;;;;;;;;;6210799;28;20228;-68
2022/02/26 01:16:22;;;;;;;20.30;6.67;;;;;;;;;;6208293;28;20232;-69
2022/02/26 01:19:43;;;;;;;25.67;6.83;;;;;;;;;;6212771;28;20225;-69
2022/02/26 01:23:05;;;;;;;24.33;7.13;;;;;;;;;;6204724;28;20300;-69
2022/02/26 01:26:26;;;;;;;23.77;6.43;;;;;;;;;;6206273;28;20233;-70
2022/02/26 01:29:46;;;;;;;26.93;8.37;;;;;;;;;;6207883;28;20236;-70
2022/02/26 01:33:07;;;;;;;24.67;6.27;;;;;;;;;;6197822;28;21086;-68
2022/02/26 01:36:27;;;;;;;21.30;7.83;;;;;;;;;;6186903;28;20233;-68
2022/02/26 01:39:49;;;;;;;26.47;6.87;;;;;;;;;;6201436;28;20237;-68
2022/02/26 01:43:09;;;;;;;25.90;8.40;;;;;;;;;;6204170;28;20229;-69
2022/02/26 01:46:30;;;;;;;21.60;6.40;;;;;;;;;;6206340;28;20422;-69
2022/02/26 01:49:51;;;;;;;26.00;7.97;;;;;;;;;;6206213;28;20233;-69
2022/02/26 01:53:11;;;;;;;23.83;6.40;;;;;;;;;;6207164;28;20316;-69
2022/02/26 01:56:34;;;;;;;23.50;7.03;;;;;;;;;;6208940;28;20228;-70
2022/02/26 01:59:55;;;;;;;24.70;6.40;;;;;;;;;;6211421;28;20233;-70
2022/02/26 02:03:15;;;;;;;33.20;7.30;;;;;;;;;;6212833;28;20248;-69
2022/02/26 02:06:38;;;;;;;20.07;9.03;;;;;;;;;;6207001;28;20326;-69
2022/02/26 02:09:58;;;;;;;27.03;8.80;;;;;;;;;;6208889;28;20572;-69
2022/02/26 02:13:20;;;;;;;28.43;7.87;;;;;;;;;;6204869;28;20552;-69
2022/02/26 02:16:41;;;;;;;24.37;5.70;;;;;;;;;;6206511;28;20233;-69
2022/02/26 02:20:01;;;;;;;26.60;8.23;;;;;;;;;;6209934;28;20239;-69
2022/02/26 02:23:23;;;;;;;22.97;7.13;;;;;;;;;;6210865;28;20278;-69
2022/02/26 02:26:45;;;;;;;38.30;7.50;;;;;;;;;;6204979;28;20224;-69
2022/02/26 02:30:06;;;;;;;24.40;7.73;;;;;;;;;;6211635;28;20865;-69
2022/02/26 02:33:27;;;;;;;26.87;8.23;;;;;;;;;;6209148;28;20224;-69
2022/02/26 02:36:48;;;;;;;31.20;7.43;;;;;;;;;;6210897;28;20225;-70
2022/02/26 02:40:11;;;;;;;26.87;9.13;;;;;;;;;;6210026;28;20994;-69
2022/02/26 02:43:31;;;;;;;25.47;7.33;;;;;;;;;;6206724;28;20228;-68
2022/02/26 02:46:52;;;;;;;33.07;7.70;;;;;;;;;;6200736;28;20587;-69
2022/02/26 02:50:13;;;;;;;21.00;6.13;;;;;;;;;;6205328;28;20225;-69
2022/02/26 02:53:34;;;;;;;27.80;8.30;;;;;;;;;;6210980;28;20639;-69
2022/02/26 02:56:55;;;;;;;35.40;9.33;;;;;;;;;;6204025;28;20253;-68
2022/02/26 03:00:17;;;;;;;27.63;7.53;;;;;;;;;;6216315;28;20236;-69
2022/02/26 03:03:37;;;;;;;29.73;7.63;;;;;;;;;;6214071;28;20256;-69
2022/02/26 03:06:58;;;;;;;28.43;8.47;;;;;;;;;;6210100;28;20229;-69
2022/02/26 03:10:19;;;;;;;25.40;7.07;;;;;;;;;;6214596;28;20221;-69
2022/02/26 03:13:41;;;;;;;27.77;7.93;;;;;;;;;;6215007;28;20234;-68
2022/02/26 03:17:02;;;;;;;23.03;7.83;;;;;;;;;;6205103;28;20226;-69
2022/02/26 03:20:23;;;;;;;27.23;7.43;;;;;;;;;;6213426;28;20256;-68
2022/02/26 03:23:44;;;;;;;27.53;7.70;;;;;;;;;;6216130;28;20523;-69
2022/02/26 03:27:05;;;;;;;23.00;6.87;;;;;;;;;;6224047;28;20225;-69
2022/02/26 03:30:26;;;;;;;22.00;7.37;;;;;;;;;;6215101;28;20508;-69
2022/02/26 03:33:47;;;;;;;21.73;7.53;;;;;;;;;;6214326;28;20228;-67
2022/02/26 03:37:08;;;;;;;20.07;6.27;;;;;;;;;;6211324;28;20237;-69
2022/02/26 03:40:29;;;;;;;25.27;6.50;;;;;;;;;;6207392;28;20221;-69
2022/02/26 03:43:50;;;;;;;25.13;9.33;;;;;;;;;;6211133;28;20658;-69
2022/02/26 03:47:12;;;;;;;24.97;7.43;;;;;;;;;;6211570;28;20240;-69
2022/02/26 03:50:33;;;;;;;22.87;6.43;;;;;;;;;;6213658;28;20312;-68
2022/02/26 03:53:53;;;;;;;23.40;6.73;;;;;;;;;;6207096;28;20226;-70
2022/02/26 03:57:14;;;;;;;21.50;6.27;;;;;;;;;;6209933;28;20312;-69
2022/02/26 04:00:35;;;;;;;25.97;7.60;;;;;;;;;;6210020;28;20799;-69
2022/02/26 04:03:57;;;;;;;21.07;5.67;;;;;;;;;;6210086;28;20225;-69
2022/02/26 04:07:17;;;;;;;21.03;7.30;;;;;;;;;;6213239;28;20630;-70
2022/02/26 04:10:38;;;;;;;26.83;8.37;;;;;;;;;;6211222;28;20233;-69
2022/02/26 04:13:58;;;;;;;23.07;6.33;;;;;;;;;;6212635;28;20314;-68
2022/02/26 04:17:19;;;;;;;28.10;7.70;;;;;;;;;;6208864;28;20233;-69
2022/02/26 04:20:41;;;;;;;18.23;5.90;;;;;;;;;;6211062;28;20225;-69
2022/02/26 04:24:02;;;;;;;32.77;7.73;;;;;;;;;;6203963;28;20237;-68
2022/02/26 04:27:22;;;;;;;29.83;7.63;;;;;;;;;;6208137;28;20233;-68
2022/02/26 04:30:43;;;;;;;27.50;6.20;;;;;;;;;;6212533;28;20634;-69
2022/02/26 04:34:04;;;;;;;43.57;8.23;;;;;;;;;;6214181;28;20252;-68
2022/02/26 04:37:25;;;;;;;15.53;6.07;;;;;;;;;;6212210;28;20233;-69
2022/02/26 04:40:46;;;;;;;22.70;7.07;;;;;;;;;;6210817;28;20232;-69
2022/02/26 04:44:07;;;;;;;31.70;7.13;;;;;;;;;;6204209;28;20233;-70
2022/02/26 04:47:27;;;;;;;22.33;6.47;;;;;;;;;;6205494;28;20242;-70
2022/02/26 04:50:48;;;;;;;23.00;6.70;;;;;;;;;;6217424;28;20599;-70
2022/02/26 04:54:12;;;;;;;24.63;7.03;;;;;;;;;;6208798;28;20543;-69
2022/02/26 04:57:33;;;;;;;23.63;7.30;;;;;;;;;;6206143;28;20229;-69
2022/02/26 05:00:53;;;;;;;24.40;6.53;;;;;;;;;;6210134;28;20232;-68
2022/02/26 05:04:14;;;;;;;19.47;6.60;;;;;;;;;;6208283;28;20224;-70
2022/02/26 05:07:35;;;;;;;20.03;6.33;;;;;;;;;;6208129;28;20321;-68
2022/02/26 05:10:57;;;;;;;21.07;7.07;;;;;;;;;;6212524;28;20257;-68
2022/02/26 05:14:17;;;;;;;19.97;6.60;;;;;;;;;;6209045;28;20237;-68
2022/02/26 05:17:38;;;;;;;18.30;6.40;;;;;;;;;;6209889;28;20233;-68
2022/02/26 05:20:59;;;;;;;18.20;4.87;;;;;;;;;;6210212;28;20323;-69
2022/02/26 05:24:19;;;;;;;16.60;6.23;;;;;;;;;;6207734;28;20312;-69
2022/02/26 05:27:42;;;;;;;19.00;6.33;;;;;;;;;;6202451;28;20309;-69
2022/02/26 05:31:02;;;;;;;20.03;7.37;;;;;;;;;;6204375;28;20310;-69
2022/02/26 05:34:23;;;;;;;21.50;6.70;;;;;;;;;;6217242;28;20225;-69
2022/02/26 05:37:44;;;;;;;19.43;7.37;;;;;;;;;;6205231;28;20229;-70
2022/02/26 05:41:07;;;;;;;20.00;5.63;;;;;;;;;;6208151;28;20225;-69
2022/02/26 05:44:29;;;;;;;28.50;7.07;;;;;;;;;;6205817;28;20221;-69
2022/02/26 05:47:49;;;;;;;19.70;6.13;;;;;;;;;;6208442;28;20233;-69
2022/02/26 05:51:09;;;;;;;25.40;7.57;;;;;;;;;;6208026;28;20724;-68
2022/02/26 05:54:30;;;;;;;16.73;6.13;;;;;;;;;;6205835;28;20233;-70
2022/02/26 05:57:50;;;;;;;23.30;5.67;;;;;;;;;;6209735;28;20617;-69
2022/02/26 06:01:12;;;;;;;25.00;5.60;;;;;;;;;;6207280;28;20229;-69
2022/02/26 06:04:33;;;;;;;22.80;8.70;;;;;;;;;;6207631;28;20232;-69
2022/02/26 06:07:53;;;;;;;20.50;7.50;;;;;;;;;;6207411;28;20262;-69
2022/02/26 06:11:14;;;;;;;17.27;6.07;;;;;;;;;;6208136;28;20645;-69
2022/02/26 06:14:35;;;;;;;21.67;6.67;;;;;;;;;;6199773;28;20586;-70
2022/02/26 06:17:57;;;;;;;19.43;7.23;;;;;;;;;;6205222;28;20253;-69
2022/02/26 06:21:17;;;;;;;26.10;9.10;;;;;;;;;;6207005;28;20228;-68
2022/02/26 06:24:38;;;;;;;21.53;7.00;;;;;;;;;;6204091;28;20236;-69
2022/02/26 06:27:58;;;;;;;21.87;6.03;;;;;;;;;;6211462;28;20684;-68
2022/02/26 06:31:19;;;;;;;20.50;6.33;;;;;;;;;;6206680;28;20229;-69
2022/02/26 06:34:40;;;;;;;19.37;6.20;;;;;;;;;;6212133;28;20226;-69
2022/02/26 06:38:01;;;;;;;19.50;6.43;;;;;;;;;;6201737;28;20498;-69
2022/02/26 06:41:21;;;;;;;21.10;6.73;;;;;;;;;;6203883;28;20237;-69
2022/02/26 06:44:42;;;;;;;21.80;6.33;;;;;;;;;;6203008;28;20249;-69
2022/02/26 06:48:03;;;;;;;34.37;6.30;;;;;;;;;;6203779;28;20270;-69
2022/02/26 06:51:24;;;;;;;22.03;6.03;;;;;;;;;;6208421;28;20233;-69
2022/02/26 06:54:45;;;;;;;20.57;5.43;;;;;;;;;;6203095;28;20562;-69
2022/02/26 06:58:05;;;;;;;31.43;19.63;;;;;;;;;;6209203;28;20240;-70
2022/02/26 07:01:26;;;;;;;27.50;9.13;;;;;;;;;;6208479;28;20323;-69
2022/02/26 07:04:46;;;;;;;22.83;7.03;;;;;;;;;;6211616;28;20237;-69
2022/02/26 07:08:08;;;;;;;21.67;6.30;;;;;;;;;;6213417;28;20233;-70
2022/02/26 07:11:29;;;;;;;20.87;7.83;;;;;;;;;;6210191;28;20229;-69
2022/02/26 07:14:50;;;;;;;13.80;4.60;;;;;;;;;;6203156;28;20232;-69
2022/02/26 07:18:10;;;;;;;19.20;5.17;;;;;;;;;;6196650;28;20228;-69
2022/02/26 07:21:31;;;;;;;21.73;5.93;;;;;;;;;;6201236;28;20237;-70
2022/02/26 07:24:53;;;;;;;17.63;6.27;;;;;;;;;;6205136;28;20236;-69
2022/02/26 07:28:13;;;;;;;23.53;6.77;;;;;;;;;;6207950;28;20684;-69
2022/02/26 07:31:34;;;;;;;21.87;7.63;;;;;;;;;;6212587;28;20240;-70
2022/02/26 07:34:54;;;;;;;19.17;6.17;;;;;;;;;;6193968;28;20237;-68
2022/02/26 07:38:15;;;;;;;16.80;5.77;;;;;;;;;;6199013;28;20242;-71
2022/02/26 07:41:37;;;;;;;22.47;6.73;;;;;;;;;;6203781;28;20241;-70
2022/02/26 07:44:57;;;;;;;17.80;6.50;;;;;;;;;;6206503;28;20256;-71
2022/02/26 07:48:18;;;;;;;22.80;6.27;;;;;;;;;;6202543;28;20225;-71
2022/02/26 07:51:39;;;;;;;14.83;5.60;;;;;;;;;;6208483;28;20291;-71
2022/02/26 07:55:00;;;;;;;16.53;5.30;;;;;;;;;;6201058;28;20224;-70
2022/02/26 07:58:22;;;;;;;18.77;5.47;;;;;;;;;;6219148;28;20264;-69
2022/02/26 08:01:42;;;;;;;17.37;5.57;;;;;;;;;;6198966;28;20233;-70
2022/02/26 08:05:03;;;;;;;21.37;6.80;;;;;;;;;;6219079;28;20233;-70
2022/02/26 08:08:23;;;;;;;19.23;6.50;;;;;;;;;;6215284;28;20353;-70
2022/02/26 08:11:44;;;;;;;16.97;5.10;;;;;;;;;;6216187;28;20228;-70
2022/02/26 08:15:06;;;;;;;22.33;6.40;;;;;;;;;;6213136;28;20237;-69
2022/02/26 08:18:26;;;;;;;21.50;6.03;;;;;;;;;;6208427;28;21611;-70
2022/02/26 08:21:47;;;;;;;19.07;5.60;;;;;;;;;;6211521;28;20556;-70
2022/02/26 08:25:08;;;;;;;22.40;5.67;;;;;;;;;;6210077;28;20546;-70
2022/02/26 08:28:29;;;;;;;12.67;5.60;;;;;;;;;;6210547;28;20237;-70
2022/02/26 08:31:51;;;;;;;15.73;4.50;;;;;;;;;;6212778;28;20328;-69
2022/02/26 08:35:12;;;;;;;20.73;5.27;;;;;;;;;;6218719;28;20228;-70
2022/02/26 08:38:33;;;;;;;20.30;5.03;;;;;;;;;;6216018;28;20225;-70
2022/02/26 08:41:53;;;;;;;26.33;5.77;;;;;;;;;;6213309;28;20240;-69
2022/02/26 08:45:14;;;;;;;19.03;5.83;;;;;;;;;;6210693;28;20225;-71
2022/02/26 08:48:36;;;;;;;22.90;7.23;;;;;;;;;;6213473;28;20237;-68
2022/02/26 08:51:57;;;;;;;14.13;4.43;;;;;;;;;;6215796;28;20232;-70
2022/02/26 08:55:17;;;;;;;15.50;6.03;;;;;;;;;;6209462;28;20221;-69
2022/02/26 08:58:38;;;;;;;20.97;4.93;;;;;;;;;;6205501;28;20233;-69
2022/02/26 09:01:58;;;;;;;24.27;7.40;;;;;;;;;;6209608;28;20234;-68
2022/02/26 09:05:20;;;;;;;15.63;4.87;;;;;;;;;;6205549;28;20258;-68
2022/02/26 09:08:41;;;;;;;21.77;4.97;;;;;;;;;;6213816;28;20220;-69
2022/02/26 09:12:02;;;;;;;18.37;5.43;;;;;;;;;;6211429;28;20229;-69
2022/02/26 09:15:22;;;;;;;18.43;5.87;;;;;;;;;;6216506;28;20233;-68
2022/02/26 09:18:43;;;;;;;17.60;5.13;;;;;;;;;;6209636;28;20221;-69
2022/02/26 09:22:05;;;;;;;17.17;5.50;;;;;;;;;;6208221;28;20622;-69
2022/02/26 09:25:26;;;;;;;18.67;4.87;;;;;;;;;;6225187;28;20586;-70
2022/02/26 09:28:47;;;;;;;19.77;6.03;;;;;;;;;;6216820;28;20898;-68
2022/02/26 09:32:08;;;;;;;15.43;5.87;;;;;;;;;;6219163;28;20232;-68
2022/02/26 09:35:28;;;;;;;17.03;5.03;;;;;;;;;;6215230;28;20229;-68
2022/02/26 09:38:50;;;;;;;9.73;4.60;;;;;;;;;;6212828;28;20225;-68
2022/02/26 09:42:10;;;;;;;14.07;5.30;;;;;;;;;;6208658;28;20237;-69
2022/02/26 09:45:31;;;;;;;14.77;5.17;;;;;;;;;;6195565;28;20233;-70
2022/02/26 09:48:51;;;;;;;18.30;4.60;;;;;;;;;;6208038;28;20313;-70
2022/02/26 09:52:11;;;;;;;11.37;3.73;;;;;;;;;;6212935;28;20267;-68
2022/02/26 09:55:33;;;;;;;9.10;4.50;;;;;;;;;;6199726;28;20233;-69
2022/02/26 09:58:54;;;;;;;11.00;4.03;;;;;;;;;;6202713;28;20618;-69
2022/02/26 10:02:15;;;;;;;9.47;3.50;;;;;;;;;;6203649;28;20251;-70
2022/02/26 10:05:36;;;;;;;7.83;3.37;;;;;;;;;;6208844;28;20226;-69
2022/02/26 10:08:58;;;;;;;16.25;3.78;;;;;;;;;;6219740;28;20232;-69
2022/02/26 10:12:24;;;;;;;9.15;4.00;;;;;;;;;;6208807;28;20694;-69
2022/02/26 10:15:45;;;;;;;14.18;4.65;;;;;;;;;;6212768;28;20582;-70
2022/02/26 10:19:06;;;;;;;6.45;3.33;;;;;;;;;;6218978;28;20594;-70
2022/02/26 10:22:28;;;;;;;8.52;3.72;;;;;;;;;;6217216;28;20233;-69
2022/02/26 10:25:50;;;;;;;10.13;3.67;;;;;;;;;;6214948;28;20225;-69
2022/02/26 10:29:15;;;;;;;13.15;3.40;;;;;;;;;;6216714;28;20225;-70
2022/02/26 10:32:35;;;;;;;7.95;3.42;;;;;;;;;;6214605;28;20228;-69
2022/02/26 10:35:58;;;;;;;9.98;3.17;;;;;;;;;;6212455;28;20673;-69
2022/02/26 10:39:26;;;;;;;6.90;2.63;;;;;;;;;;6213347;28;20228;-69
2022/02/26 10:42:47;;;;;;;5.45;3.05;;;;;;;;;;6211124;28;20895;-70
2022/02/26 10:46:22;;;;;;;8.10;2.80;;;;;;;;;;6212094;28;20229;-69
2022/02/26 10:49:43;;;;;;;9.05;3.58;;;;;;;;;;6210430;28;20516;-70
2022/02/26 10:53:05;;;;;;;10.63;4.10;;;;;;;;;;6204359;28;20233;-70
2022/02/26 10:56:32;;;;;;;7.25;2.70;;;;;;;;;;6211081;28;20245;-70
2022/02/26 10:59:54;;;;;;;7.53;3.42;;;;;;;;;;6210250;28;20232;-70
2022/02/26 11:03:18;;;;;;;6.90;2.25;;;;;;;;;;6219108;28;20228;-69
2022/02/26 11:06:40;;;;;;;4.88;2.95;;;;;;;;;;6207797;28;20324;-70
2022/02/26 11:10:00;;;;;;;4.20;2.47;;;;;;;;;;6209984;28;20615;-69
2022/02/26 11:13:22;;;;;;;6.65;3.00;;;;;;;;;;6210162;28;20587;-69
2022/02/26 11:16:42;;;;;;;5.82;2.50;;;;;;;;;;6206799;28;20271;-70
2022/02/26 11:20:05;;;;;;;3.67;1.85;;;;;;;;;;6207901;28;20233;-70
2022/02/26 11:23:25;;;;;;;4.30;1.95;;;;;;;;;;6213461;28;20233;-70
2022/02/26 11:26:47;;;;;;;2.88;1.65;;;;;;;;;;6214026;28;20229;-70
2022/02/26 11:30:08;;;;;;;5.20;2.55;;;;;;;;;;6210825;28;20229;-68
2022/02/26 11:33:29;;;;;;;5.65;2.35;;;;;;;;;;6214961;28;22089;-70
2022/02/26 11:36:52;;;;;;;4.63;1.83;;;;;;;;;;6212413;28;20229;-68
2022/02/26 11:40:14;;;;;;;5.05;2.20;;;;;;;;;;6208906;28;20234;-70
2022/02/26 11:43:36;;;;;;;6.57;2.70;;;;;;;;;;6209556;28;20792;-69
2022/02/26 11:47:11;;;;;;;5.25;2.25;;;;;;;;;;6211944;28;20261;-69
2022/02/26 11:50:32;;;;;;;5.45;2.25;;;;;;;;;;6208853;28;20324;-69
2022/02/26 11:53:54;;;;;;;4.78;3.17;;;;;;;;;;6218175;28;20218;-70
2022/02/26 11:57:14;;;;;;;5.30;2.75;;;;;;;;;;6208429;28;20229;-70
2022/02/26 12:00:40;;;;;;;4.65;2.50;;;;;;;;;;6208552;28;20233;-70
2022/02/26 12:04:01;;;;;;;6.07;2.00;;;;;;;;;;6214509;28;20237;-70
2022/02/26 12:07:28;;;;;;;2.97;1.65;;;;;;;;;;6204170;28;20232;-69
2022/02/26 12:10:57;;;;;;;2.03;1.20;;;;;;;;;;6213922;28;20286;-69
2022/02/26 12:14:25;;;;;;;2.95;1.65;;;;;;;;;;6214804;28;20231;-70
2022/02/26 12:17:45;;;;;;;2.75;1.55;;;;;;;;;;6212003;28;20602;-69
2022/02/26 12:21:08;;;;;;;4.10;1.67;;;;;;;;;;6204173;28;20229;-71
2022/02/26 12:24:30;;;;;;;3.40;1.70;;;;;;;;;;6215704;28;20229;-70
2022/02/26 12:27:59;;;;;;;3.25;2.00;;;;;;;;;;6208786;28;20886;-69
2022/02/26 12:31:20;;;;;;;2.22;1.85;;;;;;;;;;6207311;28;20232;-70
2022/02/26 12:34:42;;;;;;;3.80;2.10;;;;;;;;;;6211283;28;20222;-69
2022/02/26 12:38:03;;;;;;;3.55;1.83;;;;;;;;;;6194999;28;20238;-69
2022/02/26 12:41:28;;;;;;;5.55;1.88;;;;;;;;;;6205357;28;20228;-69
2022/02/26 12:44:51;;;;;;;2.10;1.63;;;;;;;;;;6210702;28;20244;-68
2022/02/26 12:48:12;;;;;;;3.97;1.63;;;;;;;;;;6211250;28;20248;-68
2022/02/26 12:51:33;;;;;;;3.20;2.00;;;;;;;;;;6211820;28;20607;-69
2022/02/26 12:54:53;;;;;;;3.97;1.70;;;;;;;;;;6207085;28;20226;-69
2022/02/26 12:58:16;;;;;;;7.72;2.25;;;;;;;;;;6207215;28;20225;-68
2022/02/26 13:01:39;;;;;;;2.90;1.42;;;;;;;;;;6205349;28;20229;-69
2022/02/26 13:05:01;;;;;;;3.15;1.25;;;;;;;;;;6217473;28;20240;-70
2022/02/26 13:08:22;;;;;;;2.55;1.20;;;;;;;;;;6204451;28;20634;-70
2022/02/26 13:11:44;;;;;;;2.10;1.40;;;;;;;;;;6211130;28;20559;-69
2022/02/26 13:15:06;;;;;;;5.55;1.67;;;;;;;;;;6203566;28;20921;-68
2022/02/26 13:18:30;;;;;;;1.85;0.82;;;;;;;;;;6207733;28;20301;-69
2022/02/26 13:21:51;;;;;;;1.20;1.10;;;;;;;;;;6213512;28;20225;-68
2022/02/26 13:25:12;;;;;;;3.33;1.35;;;;;;;;;;6198481;28;20796;-70
2022/02/26 13:28:33;;;;;;;3.83;1.90;;;;;;;;;;6196007;28;20237;-68
2022/02/26 13:31:54;;;;;;;2.72;1.65;;;;;;;;;;6192129;28;20253;-68
2022/02/26 13:35:17;;;;;;;3.28;2.55;;;;;;;;;;6204532;28;20240;-69
2022/02/26 13:38:37;;;;;;;2.78;1.08;;;;;;;;;;6201388;28;20229;-69
2022/02/26 13:41:59;;;;;;;1.80;0.90;;;;;;;;;;6201581;28;20244;-70
2022/02/26 13:45:19;;;;;;;2.55;0.90;;;;;;;;;;6203709;28;20229;-69
2022/02/26 13:48:43;;;;;;;2.28;1.17;;;;;;;;;;6209942;28;20245;-69
2022/02/26 13:52:10;;;;;;;2.03;1.38;;;;;;;;;;6213396;28;20246;-69
2022/02/26 13:55:30;;;;;;;4.13;1.08;;;;;;;;;;6198196;28;20261;-69
2022/02/26 13:58:52;;;;;;;3.08;1.38;;;;;;;;;;6207737;28;20221;-67
2022/02/26 14:02:20;;;;;;;3.88;0.95;;;;;;;;;;6193243;28;20232;-69
2022/02/26 14:05:41;;;;;;;3.25;1.63;;;;;;;;;;6192828;28;20260;-69
2022/02/26 14:09:04;;;;;;;1.90;0.88;;;;;;;;;;6197509;28;20244;-69
2022/02/26 14:12:26;;;;;;;2.67;0.90;;;;;;;;;;6197007;28;20585;-68
2022/02/26 14:15:48;;;;;;;3.05;1.25;;;;;;;;;;6188933;28;20237;-68
2022/02/26 14:19:11;;;;;;;2.65;1.42;;;;;;;;;;6195374;28;20225;-69
2022/02/26 14:22:33;;;;;;;1.48;1.10;;;;;;;;;;6200355;28;20236;-69
2022/02/26 14:26:00;;;;;;;2.58;1.45;;;;;;;;;;6190520;28;20249;-69
2022/02/26 14:29:27;;;;;;;2.35;1.13;;;;;;;;;;6198075;28;20619;-70
2022/02/26 14:32:49;;;;;;;2.88;1.10;;;;;;;;;;6207693;28;20221;-69
2022/02/26 14:36:10;;;;;;;2.22;2.03;;;;;;;;;;6205729;28;20245;-69
2022/02/26 14:39:30;;;;;;;5.43;4.00;;;;;;;;;;6209595;28;20267;-69
2022/02/26 14:42:53;;;;;;;3.17;1.45;;;;;;;;;;6209802;28;20229;-69
2022/02/26 14:46:13;;;;;;;2.95;1.88;;;;;;;;;;6206267;28;20229;-70
2022/02/26 14:49:34;;;;;;;3.35;1.60;;;;;;;;;;6213268;28;20228;-69
2022/02/26 14:52:54;;;;;;;2.87;1.20;;;;;;;;;;6215930;28;20221;-69
2022/02/26 14:56:15;;;;;;;2.23;1.10;;;;;;;;;;6204432;28;20557;-69
2022/02/26 14:59:37;;;;;;;5.27;1.83;;;;;;;;;;6205672;28;20233;-69
2022/02/26 15:02:58;;;;;;;2.30;2.10;;;;;;;;;;6205348;28;20504;-69
2022/02/26 15:06:20;;;;;;;3.10;1.07;;;;;;;;;;6204203;28;20233;-68
2022/02/26 15:09:40;;;;;;;3.07;1.87;;;;;;;;;;6212742;28;20320;-69
2022/02/26 15:13:01;;;;;;;1.73;1.00;;;;;;;;;;6205295;28;20228;-69
2022/02/26 15:16:23;;;;;;;2.03;1.10;;;;;;;;;;6206908;28;20237;-69
2022/02/26 15:19:44;;;;;;;1.67;0.90;;;;;;;;;;6207617;28;20613;-69
2022/02/26 15:23:04;;;;;;;3.17;2.00;;;;;;;;;;6204308;28;20233;-70
2022/02/26 15:26:25;;;;;;;2.53;1.70;;;;;;;;;;6207081;28;20237;-69
2022/02/26 15:29:46;;;;;;;4.13;1.80;;;;;;;;;;6207226;28;20233;-70
2022/02/26 15:33:08;;;;;;;4.00;1.77;;;;;;;;;;6209131;28;20226;-69
2022/02/26 15:36:28;;;;;;;3.23;1.80;;;;;;;;;;6211540;28;20225;-70
2022/02/26 15:39:49;;;;;;;2.03;1.37;;;;;;;;;;6201138;28;20222;-70
2022/02/26 15:43:09;;;;;;;3.57;2.07;;;;;;;;;;6199145;28;20272;-70
2022/02/26 15:46:30;;;;;;;2.90;2.03;;;;;;;;;;6203608;28;20238;-71
2022/02/26 15:49:52;;;;;;;4.73;2.03;;;;;;;;;;6203952;28;20237;-72
2022/02/26 15:53:12;;;;;;;4.20;1.63;;;;;;;;;;6204963;28;20633;-69
2022/02/26 15:56:33;;;;;;;8.80;6.97;;;;;;;;;;6211193;28;20233;-69
2022/02/26 15:59:54;;;;;;;4.77;3.07;;;;;;;;;;6207799;28;20799;-69
2022/02/26 16:03:14;;;;;;;4.77;2.10;;;;;;;;;;6214246;28;20682;-69
2022/02/26 16:06:37;;;;;;;3.47;2.43;;;;;;;;;;6211435;28;20241;-70
2022/02/26 16:09:58;;;;;;;3.03;2.63;;;;;;;;;;6207810;28;20673;-70
2022/02/26 16:13:19;;;;;;;2.13;1.40;;;;;;;;;;6216325;28;20607;-69
2022/02/26 16:16:40;;;;;;;5.03;2.17;;;;;;;;;;6207955;28;20225;-70
2022/02/26 16:20:00;;;;;;;3.40;2.03;;;;;;;;;;6211376;28;20320;-69
2022/02/26 16:23:22;;;;;;;3.37;2.30;;;;;;;;;;6213196;28;20241;-69
2022/02/26 16:26:42;;;;;;;4.17;2.50;;;;;;;;;;6207653;28;20233;-70
2022/02/26 16:30:04;;;;;;;4.60;2.53;;;;;;;;;;6212506;28;20249;-69
2022/02/26 16:33:26;;;;;;;2.90;2.10;;;;;;;;;;6209011;28;20230;-71
2022/02/26 16:36:47;;;;;;;3.37;1.80;;;;;;;;;;6205963;28;20245;-70
2022/02/26 16:40:10;;;;;;;5.80;2.37;;;;;;;;;;6208804;28;20876;-70
2022/02/26 16:43:31;;;;;;;2.90;1.87;;;;;;;;;;6207248;28;20957;-70
2022/02/26 16:46:51;;;;;;;4.07;2.13;;;;;;;;;;6200934;28;20837;-70
2022/02/26 16:50:12;;;;;;;4.20;2.33;;;;;;;;;;6202901;28;20315;-70
2022/02/26 16:53:33;;;;;;;7.10;2.77;;;;;;;;;;6214485;28;20237;-70
2022/02/26 16:56:55;;;;;;;3.27;2.30;;;;;;;;;;6205383;28;20573;-70
2022/02/26 17:00:16;;;;;;;3.80;2.17;;;;;;;;;;6213892;28;20225;-71
2022/02/26 17:03:37;;;;;;;4.23;2.73;;;;;;;;;;6212019;28;20237;-70
2022/02/26 17:06:58;;;;;;;2.77;2.00;;;;;;;;;;6209612;28;20317;-70
2022/02/26 17:10:20;;;;;;;8.23;2.73;;;;;;;;;;6207487;28;20245;-70
2022/02/26 17:13:42;;;;;;;4.87;3.77;;;;;;;;;;6209286;28;20618;-71
2022/02/26 17:17:03;;;;;;;3.30;2.87;;;;;;;;;;6205855;28;20233;-69
2022/02/26 17:20:24;;;;;;;3.53;2.20;;;;;;;;;;6209427;28;20229;-69
2022/02/26 17:23:44;;;;;;;6.57;3.17;;;;;;;;;;6209843;28;20499;-71
2022/02/26 17:27:05;;;;;;;5.07;3.37;;;;;;;;;;6206031;28;20229;-70
2022/02/26 17:30:27;;;;;;;6.13;3.73;;;;;;;;;;6211137;28;20233;-71
2022/02/26 17:33:49;;;;;;;5.70;3.23;;;;;;;;;;6210694;28;20328;-70
2022/02/26 17:37:10;;;;;;;8.37;5.57;;;;;;;;;;6210668;28;20541;-69
2022/02/26 17:40:31;;;;;;;8.77;4.53;;;;;;;;;;6208143;28;20240;-70
2022/02/26 17:43:51;;;;;;;5.63;4.00;;;;;;;;;;6207481;28;20606;-71
2022/02/26 17:47:13;;;;;;;9.53;4.83;;;;;;;;;;6209503;28;20228;-69
2022/02/26 17:50:34;;;;;;;7.67;5.17;;;;;;;;;;6209646;28;20237;-70
2022/02/26 17:53:54;;;;;;;6.00;4.40;;;;;;;;;;6205897;28;20233;-70
2022/02/26 17:57:15;;;;;;;6.37;4.73;;;;;;;;;;6210513;28;20225;-70
2022/02/26 18:00:35;;;;;;;7.23;4.67;;;;;;;;;;6199908;28;20225;-72
2022/02/26 18:03:57;;;;;;;5.50;5.00;;;;;;;;;;6198761;28;20225;-71
2022/02/26 18:07:18;;;;;;;9.20;5.67;;;;;;;;;;6199850;28;20611;-71
2022/02/26 18:10:42;;;;;;;7.03;5.40;;;;;;;;;;6205283;28;20221;-72
2022/02/26 18:14:02;;;;;;;8.67;5.53;;;;;;;;;;6198371;28;21458;-70
2022/02/26 18:17:23;;;;;;;7.83;5.50;;;;;;;;;;6202942;28;20843;-70
2022/02/26 18:20:45;;;;;;;7.77;5.77;;;;;;;;;;6201408;28;20229;-71
2022/02/26 18:24:06;;;;;;;5.47;4.27;;;;;;;;;;6202663;28;20238;-70
2022/02/26 18:27:27;;;;;;;7.00;4.60;;;;;;;;;;6209690;28;20229;-70
2022/02/26 18:30:47;;;;;;;4.77;4.27;;;;;;;;;;6198180;28;22204;-71
2022/02/26 18:34:10;;;;;;;7.97;5.13;;;;;;;;;;6207849;28;20772;-69
2022/02/26 18:37:34;;;;;;;8.13;3.50;;;;;;;;;;6202855;28;20622;-72
2022/02/26 18:40:54;;;;;;;6.10;3.63;;;;;;;;;;6205029;28;20233;-69
2022/02/26 18:44:16;;;;;;;6.23;3.27;;;;;;;;;;6204811;28;20577;-70
2022/02/26 18:47:37;;;;;;;7.50;3.60;;;;;;;;;;6206430;28;20638;-71
2022/02/26 18:50:57;;;;;;;5.30;4.13;;;;;;;;;;6206697;28;20905;-69
2022/02/26 18:54:19;;;;;;;6.03;3.37;;;;;;;;;;6205108;28;20237;-71
2022/02/26 18:57:40;;;;;;;7.07;3.57;;;;;;;;;;6205011;28;20261;-70
2022/02/26 19:01:00;;;;;;;4.80;3.57;;;;;;;;;;6206228;28;20225;-69
2022/02/26 19:04:21;;;;;;;5.03;3.53;;;;;;;;;;6207562;28;20229;-69
2022/02/26 19:07:42;;;;;;;7.20;4.37;;;;;;;;;;6209594;28;20581;-70
2022/02/26 19:11:04;;;;;;;6.33;3.67;;;;;;;;;;6202612;28;20225;-71
2022/02/26 19:14:25;;;;;;;9.43;7.37;;;;;;;;;;6211566;28;20244;-69
2022/02/26 19:17:46;;;;;;;32.03;27.83;;;;;;;;;;6209275;28;20233;-69
2022/02/26 19:21:07;;;;;;;20.90;16.33;;;;;;;;;;6209544;28;20228;-69
2022/02/26 19:24:27;;;;;;;63.37;53.90;;;;;;;;;;6213191;28;20229;-71
2022/02/26 19:27:50;;;;;;;29.03;25.73;;;;;;;;;;6207456;28;20229;-70
2022/02/26 19:31:12;;;;;;;28.07;24.30;;;;;;;;;;6205788;28;20343;-69
2022/02/26 19:34:33;;;;;;;31.17;23.13;;;;;;;;;;6210614;28;20229;-72
2022/02/26 19:37:53;;;;;;;65.23;50.60;;;;;;;;;;6205147;28;20233;-70
2022/02/26 19:41:14;;;;;;;31.33;21.93;;;;;;;;;;6207613;28;20280;-70
2022/02/26 19:44:36;;;;;;;33.83;26.57;;;;;;;;;;6210524;28;20232;-70
2022/02/26 19:47:57;;;;;;;17.63;15.73;;;;;;;;;;6202403;28;20247;-71
2022/02/26 19:51:19;;;;;;;20.13;15.80;;;;;;;;;;6200745;28;20249;-70
2022/02/26 19:54:39;;;;;;;24.57;20.27;;;;;;;;;;6204818;28;21152;-69
2022/02/26 19:58:00;;;;;;;28.60;25.37;;;;;;;;;;6204937;28;20515;-70
2022/02/26 20:01:25;;;;;;;16.60;13.10;;;;;;;;;;6205043;28;20221;-70